Time;durP1;ratioP1;P1;durP2;ratioP2;P2;SDS_P1;SDS_P2;PMS_P1;PMS_P2;Temp;Humidity;BMP_temperature;BMP_pressure;BME280_temperature;BME280_humidity;BME280_pressure;Samples;Min_cycle;Max_cycle;Signal;HPM_P1;HPM_P2
2023/07/06 00:00:41;;;;;;;5.13;2.47;;;;;;;;;;5043349;28;20198;-63
2023/07/06 00:03:11;;;;;;;4.90;2.53;;;;;;;;;;5050331;28;20498;-65
2023/07/06 00:05:43;;;;;;;4.43;2.10;;;;;;;;;;5047929;28;20233;-62
2023/07/06 00:08:11;;;;;;;2.90;2.70;;;;;;;;;;5036089;28;20612;-63
2023/07/06 00:10:39;;;;;;;3.20;2.70;;;;;;;;;;5039955;28;20207;-61
2023/07/06 00:13:07;;;;;;;2.90;2.60;;;;;;;;;;5031370;28;20206;-61
2023/07/06 00:15:35;;;;;;;4.13;2.57;;;;;;;;;;5031290;28;20256;-62
2023/07/06 00:18:03;;;;;;;2.60;2.40;;;;;;;;;;5039853;28;20206;-63
2023/07/06 00:20:37;;;;;;;5.20;2.50;;;;;;;;;;5030317;28;20207;-63
2023/07/06 00:23:05;;;;;;;3.43;2.97;;;;;;;;;;5046790;28;20209;-62
2023/07/06 00:25:33;;;;;;;2.90;2.60;;;;;;;;;;5031999;28;20226;-61
2023/07/06 00:28:04;;;;;;;3.37;2.23;;;;;;;;;;5042648;28;20210;-61
2023/07/06 00:30:53;;;;;;;2.60;2.30;;;;;;;;;;5043484;28;20198;-62
2023/07/06 00:33:21;;;;;;;9.20;4.20;;;;;;;;;;5026428;28;20317;-62
2023/07/06 00:35:49;;;;;;;3.87;2.90;;;;;;;;;;5041044;28;20230;-62
2023/07/06 00:38:21;;;;;;;5.93;3.40;;;;;;;;;;5025175;28;20214;-64
2023/07/06 00:40:50;;;;;;;5.13;2.93;;;;;;;;;;5031827;28;20260;-61
2023/07/06 00:43:20;;;;;;;3.93;2.50;;;;;;;;;;5024030;28;20256;-65
2023/07/06 00:45:49;;;;;;;2.93;2.63;;;;;;;;;;5046661;28;20230;-63
2023/07/06 00:48:23;;;;;;;3.10;2.77;;;;;;;;;;5032008;28;20199;-64
2023/07/06 00:50:52;;;;;;;4.67;2.73;;;;;;;;;;5049527;28;20225;-63
2023/07/06 00:53:20;;;;;;;5.23;3.00;;;;;;;;;;5020335;28;20210;-66
2023/07/06 00:55:48;;;;;;;3.87;2.93;;;;;;;;;;5025501;28;20258;-63
2023/07/06 00:58:20;;;;;;;2.70;2.50;;;;;;;;;;5022962;28;20228;-64
2023/07/06 01:00:47;;;;;;;3.57;3.17;;;;;;;;;;5044531;28;20211;-62
2023/07/06 01:03:19;;;;;;;2.90;2.43;;;;;;;;;;5049990;28;20659;-62
2023/07/06 01:05:48;;;;;;;3.33;2.63;;;;;;;;;;5029103;28;20707;-63
2023/07/06 01:08:18;;;;;;;3.00;2.40;;;;;;;;;;5030991;28;20201;-63
2023/07/06 01:10:46;;;;;;;3.17;2.50;;;;;;;;;;5047062;28;20285;-62
2023/07/06 01:13:13;;;;;;;4.00;2.60;;;;;;;;;;5028577;28;20203;-62
2023/07/06 01:15:43;;;;;;;5.40;2.40;;;;;;;;;;5035044;28;20236;-65
2023/07/06 01:18:16;;;;;;;5.67;3.93;;;;;;;;;;5032236;28;20206;-65
2023/07/06 01:20:46;;;;;;;5.47;3.50;;;;;;;;;;5046803;28;20210;-62
2023/07/06 01:23:17;;;;;;;3.40;3.07;;;;;;;;;;5035030;28;20272;-64
2023/07/06 01:25:53;;;;;;;3.40;2.73;;;;;;;;;;5043950;28;20237;-62
2023/07/06 01:28:33;;;;;;;2.90;2.70;;;;;;;;;;5020662;28;20198;-63
2023/07/06 01:31:20;;;;;;;3.27;2.70;;;;;;;;;;5045498;28;20219;-63
2023/07/06 01:33:55;;;;;;;3.90;2.63;;;;;;;;;;5040526;28;20245;-63
2023/07/06 01:36:39;;;;;;;5.00;2.90;;;;;;;;;;5019181;28;20252;-62
2023/07/06 01:39:23;;;;;;;2.53;2.33;;;;;;;;;;5018987;28;20223;-63
2023/07/06 01:42:08;;;;;;;2.60;2.40;;;;;;;;;;5041015;28;20202;-67
2023/07/06 01:44:41;;;;;;;6.30;4.13;;;;;;;;;;5042453;28;20700;-62
2023/07/06 01:47:09;;;;;;;5.97;3.63;;;;;;;;;;5016962;28;20202;-69
2023/07/06 01:49:37;;;;;;;3.10;2.53;;;;;;;;;;5042710;28;20723;-63
2023/07/06 01:52:09;;;;;;;4.77;2.70;;;;;;;;;;5022409;28;20682;-62
2023/07/06 01:54:42;;;;;;;3.40;2.80;;;;;;;;;;5046709;28;20276;-62
2023/07/06 01:57:15;;;;;;;4.30;2.50;;;;;;;;;;5038102;28;20206;-65
2023/07/06 01:59:47;;;;;;;2.77;2.57;;;;;;;;;;5047557;28;20650;-61
2023/07/06 02:02:16;;;;;;;3.80;2.70;;;;;;;;;;5020508;28;20702;-63
2023/07/06 02:04:44;;;;;;;3.50;2.90;;;;;;;;;;5044593;28;20305;-64
2023/07/06 02:07:13;;;;;;;2.70;2.50;;;;;;;;;;5039423;28;20607;-62
2023/07/06 02:09:47;;;;;;;4.33;2.50;;;;;;;;;;5038137;28;20586;-65
2023/07/06 02:12:14;;;;;;;3.47;2.57;;;;;;;;;;5042902;28;20201;-64
2023/07/06 02:14:48;;;;;;;2.90;2.57;;;;;;;;;;5040707;28;20230;-64
2023/07/06 02:17:15;;;;;;;3.03;2.80;;;;;;;;;;5029546;28;20685;-63
2023/07/06 02:19:43;;;;;;;3.17;2.47;;;;;;;;;;5026700;28;20256;-63
2023/07/06 02:22:10;;;;;;;4.40;3.47;;;;;;;;;;5042544;28;20203;-67
2023/07/06 02:24:38;;;;;;;4.17;2.73;;;;;;;;;;5043071;28;20257;-64
2023/07/06 02:27:05;;;;;;;4.27;2.80;;;;;;;;;;5050208;28;20213;-62
2023/07/06 02:29:33;;;;;;;3.77;2.70;;;;;;;;;;5047111;28;20285;-66
2023/07/06 02:32:00;;;;;;;3.50;2.87;;;;;;;;;;5050102;28;20700;-64
2023/07/06 02:34:28;;;;;;;5.70;2.60;;;;;;;;;;5044529;28;20632;-62
2023/07/06 02:36:56;;;;;;;4.43;2.70;;;;;;;;;;5053736;28;20206;-63
2023/07/06 02:39:27;;;;;;;5.13;2.97;;;;;;;;;;5047081;28;20221;-65
2023/07/06 02:41:56;;;;;;;4.23;2.53;;;;;;;;;;5047682;28;20202;-65
2023/07/06 02:44:24;;;;;;;3.57;2.60;;;;;;;;;;5049822;28;20222;-65
2023/07/06 02:46:51;;;;;;;3.60;2.40;;;;;;;;;;5051398;28;20581;-65
2023/07/06 02:49:19;;;;;;;3.13;2.70;;;;;;;;;;5038012;28;20210;-62
2023/07/06 02:51:46;;;;;;;3.00;2.60;;;;;;;;;;5030872;28;20194;-66
2023/07/06 02:54:15;;;;;;;3.27;2.23;;;;;;;;;;5027302;28;20230;-65
2023/07/06 02:56:43;;;;;;;2.83;2.60;;;;;;;;;;5034935;28;20684;-65
2023/07/06 02:59:10;;;;;;;7.20;2.87;;;;;;;;;;5042651;28;20202;-64
2023/07/06 03:01:39;;;;;;;4.77;2.77;;;;;;;;;;5028836;28;20203;-62
2023/07/06 03:04:09;;;;;;;2.97;2.47;;;;;;;;;;5036745;28;20206;-62
2023/07/06 03:06:38;;;;;;;4.20;2.90;;;;;;;;;;5036262;28;20264;-62
2023/07/06 03:09:07;;;;;;;3.80;2.80;;;;;;;;;;5033649;28;20202;-61
2023/07/06 03:11:35;;;;;;;3.17;2.50;;;;;;;;;;5046879;28;20198;-63
2023/07/06 03:14:03;;;;;;;4.57;3.40;;;;;;;;;;5039611;28;20209;-63
2023/07/06 03:16:41;;;;;;;4.70;3.57;;;;;;;;;;5050154;28;20204;-65
2023/07/06 03:19:09;;;;;;;3.17;2.87;;;;;;;;;;5028373;28;20285;-64
2023/07/06 03:21:40;;;;;;;4.37;3.00;;;;;;;;;;5030379;28;20660;-62
2023/07/06 03:24:08;;;;;;;3.47;2.70;;;;;;;;;;5022797;28;20550;-63
2023/07/06 03:26:36;;;;;;;3.30;3.00;;;;;;;;;;5044715;28;20313;-65
2023/07/06 03:29:05;;;;;;;3.53;3.00;;;;;;;;;;5036312;28;20301;-61
2023/07/06 03:31:33;;;;;;;6.63;3.37;;;;;;;;;;5035467;28;20210;-65
2023/07/06 03:34:00;;;;;;;5.00;3.23;;;;;;;;;;5043225;28;20206;-63
2023/07/06 03:36:28;;;;;;;4.30;3.50;;;;;;;;;;5040605;28;20288;-64
2023/07/06 03:38:57;;;;;;;4.40;3.00;;;;;;;;;;5039817;28;20206;-65
2023/07/06 03:41:24;;;;;;;3.33;3.03;;;;;;;;;;5036892;28;20581;-61
2023/07/06 03:43:56;;;;;;;6.60;3.53;;;;;;;;;;5036392;28;20209;-65
2023/07/06 03:46:25;;;;;;;5.43;3.30;;;;;;;;;;5025300;28;20222;-61
2023/07/06 03:48:52;;;;;;;3.63;2.90;;;;;;;;;;5031818;28;20806;-62
2023/07/06 03:51:20;;;;;;;5.90;2.90;;;;;;;;;;5038942;28;20206;-68
2023/07/06 03:53:47;;;;;;;5.03;3.00;;;;;;;;;;5047404;28;20248;-63
2023/07/06 03:56:15;;;;;;;4.20;3.20;;;;;;;;;;5048825;28;20605;-64
2023/07/06 03:58:43;;;;;;;3.57;2.97;;;;;;;;;;5030595;28;20206;-64
2023/07/06 04:01:10;;;;;;;5.53;3.23;;;;;;;;;;5042317;28;20205;-62
2023/07/06 04:03:39;;;;;;;4.33;3.10;;;;;;;;;;5040968;28;20236;-63
2023/07/06 04:06:06;;;;;;;3.30;3.00;;;;;;;;;;5045306;28;20930;-63
2023/07/06 04:08:35;;;;;;;4.63;3.17;;;;;;;;;;5037259;28;20206;-67
2023/07/06 04:11:02;;;;;;;3.57;3.23;;;;;;;;;;5021122;28;20210;-63
2023/07/06 04:13:30;;;;;;;3.30;3.00;;;;;;;;;;5049990;28;20202;-64
2023/07/06 04:15:58;;;;;;;7.63;4.20;;;;;;;;;;5041593;28;20245;-66
2023/07/06 04:18:26;;;;;;;4.50;3.73;;;;;;;;;;5035798;28;20206;-68
2023/07/06 04:21:01;;;;;;;5.97;3.70;;;;;;;;;;5040250;28;20206;-64
2023/07/06 04:23:28;;;;;;;3.90;3.50;;;;;;;;;;5031571;28;20213;-66
2023/07/06 04:25:56;;;;;;;4.03;3.37;;;;;;;;;;5016683;28;20259;-69
2023/07/06 04:28:24;;;;;;;4.17;3.20;;;;;;;;;;5026254;28;20664;-65
2023/07/06 04:30:51;;;;;;;4.60;3.50;;;;;;;;;;5037028;28;20221;-63
2023/07/06 04:33:19;;;;;;;5.03;3.47;;;;;;;;;;5049208;28;20210;-67
2023/07/06 04:35:54;;;;;;;3.20;3.00;;;;;;;;;;5038272;28;20262;-67
2023/07/06 04:38:25;;;;;;;3.90;3.50;;;;;;;;;;5040397;28;20206;-63
2023/07/06 04:40:52;;;;;;;7.10;3.13;;;;;;;;;;5037142;28;20202;-66
2023/07/06 04:43:20;;;;;;;4.40;3.37;;;;;;;;;;5039909;28;20215;-63
2023/07/06 04:45:47;;;;;;;4.53;3.83;;;;;;;;;;5038745;28;20910;-61
2023/07/06 04:48:16;;;;;;;6.87;3.53;;;;;;;;;;5038825;28;20212;-65
2023/07/06 04:50:44;;;;;;;5.53;3.57;;;;;;;;;;5044790;28;20904;-67
2023/07/06 04:53:11;;;;;;;5.97;3.90;;;;;;;;;;5038891;28;20714;-65
2023/07/06 04:55:38;;;;;;;6.03;5.10;;;;;;;;;;5040212;28;20234;-62
2023/07/06 04:58:06;;;;;;;5.00;4.20;;;;;;;;;;5038815;28;20558;-67
2023/07/06 05:00:37;;;;;;;3.97;3.60;;;;;;;;;;5038805;28;20210;-66
2023/07/06 05:03:08;;;;;;;5.20;3.30;;;;;;;;;;5038293;28;20206;-64
2023/07/06 05:05:40;;;;;;;4.73;3.33;;;;;;;;;;5035813;28;21270;-65
2023/07/06 05:08:09;;;;;;;4.67;3.83;;;;;;;;;;5031135;28;20202;-64
2023/07/06 05:10:36;;;;;;;5.33;4.40;;;;;;;;;;5033481;28;20198;-63
2023/07/06 05:13:04;;;;;;;6.40;4.53;;;;;;;;;;5039861;28;20203;-63
2023/07/06 05:15:32;;;;;;;6.20;4.70;;;;;;;;;;5019157;28;20229;-67
2023/07/06 05:18:01;;;;;;;7.60;4.77;;;;;;;;;;5040680;28;20202;-65
2023/07/06 05:20:30;;;;;;;9.13;5.50;;;;;;;;;;5033688;28;20202;-65
2023/07/06 05:22:59;;;;;;;7.13;5.33;;;;;;;;;;5037114;28;20627;-64
2023/07/06 05:25:27;;;;;;;4.20;3.80;;;;;;;;;;5024297;28;20280;-63
2023/07/06 05:27:54;;;;;;;5.33;3.33;;;;;;;;;;5025283;28;20210;-64
2023/07/06 05:30:23;;;;;;;4.45;2.92;;;;;;;;;;5026754;28;20279;-64
2023/07/06 05:32:50;;;;;;;2.83;2.53;;;;;;;;;;5037071;28;20316;-66
2023/07/06 05:35:20;;;;;;;3.00;2.70;;;;;;;;;;5026733;28;20252;-68
2023/07/06 05:37:48;;;;;;;3.92;2.60;;;;;;;;;;5047349;28;20205;-64
2023/07/06 05:40:16;;;;;;;3.33;2.55;;;;;;;;;;5024366;28;20260;-63
2023/07/06 05:42:43;;;;;;;3.33;2.30;;;;;;;;;;5040060;28;20253;-63
2023/07/06 05:45:11;;;;;;;2.58;2.08;;;;;;;;;;5043416;28;20237;-63
2023/07/06 05:47:38;;;;;;;3.97;2.25;;;;;;;;;;5040684;28;20296;-65
2023/07/06 05:50:09;;;;;;;2.65;1.70;;;;;;;;;;5038772;28;20282;-62
2023/07/06 05:52:36;;;;;;;3.10;2.00;;;;;;;;;;5039059;28;20284;-66
2023/07/06 05:55:03;;;;;;;4.30;2.10;;;;;;;;;;5039968;28;20282;-63
2023/07/06 05:57:31;;;;;;;2.42;2.22;;;;;;;;;;5045610;28;20723;-63
2023/07/06 05:59:59;;;;;;;3.65;2.33;;;;;;;;;;5040905;28;20218;-62
2023/07/06 06:02:27;;;;;;;3.65;2.15;;;;;;;;;;5046852;28;20259;-63
2023/07/06 06:04:55;;;;;;;4.97;2.40;;;;;;;;;;5037809;28;20248;-64
2023/07/06 06:07:22;;;;;;;3.10;2.30;;;;;;;;;;5022253;28;20352;-63
2023/07/06 06:09:50;;;;;;;4.22;2.10;;;;;;;;;;5035981;28;20230;-63
2023/07/06 06:12:18;;;;;;;2.55;2.28;;;;;;;;;;5024518;28;20675;-63
2023/07/06 06:14:50;;;;;;;2.72;2.38;;;;;;;;;;5043867;28;20641;-63
2023/07/06 06:17:18;;;;;;;2.88;2.67;;;;;;;;;;5040982;28;20264;-63
2023/07/06 06:19:46;;;;;;;5.30;2.55;;;;;;;;;;5043362;28;20222;-63
2023/07/06 06:22:15;;;;;;;2.22;2.03;;;;;;;;;;5049078;28;20575;-64
2023/07/06 06:24:44;;;;;;;3.67;2.30;;;;;;;;;;5039548;28;20254;-64
2023/07/06 06:27:14;;;;;;;2.95;2.20;;;;;;;;;;5045601;28;20222;-64
2023/07/06 06:29:45;;;;;;;2.78;2.40;;;;;;;;;;5036363;28;20238;-63
2023/07/06 06:32:13;;;;;;;3.78;2.65;;;;;;;;;;5042948;28;20452;-64
2023/07/06 06:34:42;;;;;;;3.10;2.30;;;;;;;;;;5036395;28;20214;-63
2023/07/06 06:37:09;;;;;;;4.15;2.50;;;;;;;;;;5041000;28;20214;-63
2023/07/06 06:39:38;;;;;;;2.25;2.05;;;;;;;;;;5040362;28;20629;-64
2023/07/06 06:42:07;;;;;;;2.50;2.30;;;;;;;;;;5022052;28;20218;-63
2023/07/06 06:44:35;;;;;;;3.88;2.40;;;;;;;;;;5026994;28;20226;-69
2023/07/06 06:47:04;;;;;;;5.28;2.20;;;;;;;;;;5046870;28;20229;-63
2023/07/06 06:49:33;;;;;;;3.03;2.22;;;;;;;;;;5035995;28;20206;-64
2023/07/06 06:52:01;;;;;;;2.78;2.38;;;;;;;;;;5044953;28;20297;-63
2023/07/06 06:54:30;;;;;;;5.82;2.50;;;;;;;;;;5032618;28;20229;-63
2023/07/06 06:56:58;;;;;;;3.90;2.40;;;;;;;;;;5027891;28;20210;-63
2023/07/06 06:59:25;;;;;;;2.97;2.22;;;;;;;;;;5037638;28;20220;-63
2023/07/06 07:01:54;;;;;;;3.05;2.53;;;;;;;;;;5038957;28;20305;-63
2023/07/06 07:04:22;;;;;;;3.17;2.30;;;;;;;;;;5020885;28;20242;-62
2023/07/06 07:06:49;;;;;;;2.42;2.20;;;;;;;;;;5027082;28;20225;-63
2023/07/06 07:09:18;;;;;;;2.45;2.25;;;;;;;;;;5011752;28;20202;-63
2023/07/06 07:11:47;;;;;;;5.47;2.67;;;;;;;;;;5033305;28;20197;-62
2023/07/06 07:14:15;;;;;;;3.55;2.65;;;;;;;;;;5022684;28;20237;-63
2023/07/06 07:16:43;;;;;;;3.08;2.58;;;;;;;;;;5038962;28;20202;-64
2023/07/06 07:19:10;;;;;;;4.75;2.58;;;;;;;;;;5034401;28;20207;-64
2023/07/06 07:21:38;;;;;;;5.13;2.15;;;;;;;;;;5018417;28;20210;-64
2023/07/06 07:24:06;;;;;;;3.88;2.70;;;;;;;;;;5028995;28;20392;-64
2023/07/06 07:26:33;;;;;;;3.45;2.42;;;;;;;;;;5038650;28;20871;-63
2023/07/06 07:29:02;;;;;;;5.68;2.47;;;;;;;;;;5030551;28;20214;-63
2023/07/06 07:31:30;;;;;;;2.38;2.17;;;;;;;;;;5021862;28;21670;-63
2023/07/06 07:33:57;;;;;;;6.57;2.50;;;;;;;;;;5021826;28;20253;-64
2023/07/06 07:36:25;;;;;;;4.57;2.30;;;;;;;;;;5036123;28;20624;-64
2023/07/06 07:38:56;;;;;;;4.90;2.80;;;;;;;;;;5042352;28;20210;-64
2023/07/06 07:41:25;;;;;;;3.55;2.70;;;;;;;;;;5033088;28;20304;-63
2023/07/06 07:43:53;;;;;;;6.03;2.53;;;;;;;;;;5035362;28;21206;-63
2023/07/06 07:46:22;;;;;;;3.95;2.42;;;;;;;;;;5044002;28;20297;-63
2023/07/06 07:48:50;;;;;;;4.10;2.47;;;;;;;;;;5033108;28;20202;-63
2023/07/06 07:51:21;;;;;;;3.40;2.70;;;;;;;;;;5042621;28;20264;-64
2023/07/06 07:53:49;;;;;;;4.45;2.70;;;;;;;;;;5040052;28;20211;-64
2023/07/06 07:56:17;;;;;;;5.82;2.80;;;;;;;;;;5032525;28;20226;-64
2023/07/06 07:58:47;;;;;;;4.50;2.78;;;;;;;;;;5034510;28;20297;-63
2023/07/06 08:01:17;;;;;;;6.15;3.70;;;;;;;;;;5048558;28;20658;-63
2023/07/06 08:03:44;;;;;;;3.15;2.85;;;;;;;;;;5032269;28;20617;-64
2023/07/06 08:06:14;;;;;;;4.20;2.92;;;;;;;;;;5037984;28;20253;-63
2023/07/06 08:08:43;;;;;;;6.85;3.00;;;;;;;;;;5035711;28;20206;-63
2023/07/06 08:11:13;;;;;;;3.60;2.75;;;;;;;;;;5033054;28;20207;-63
2023/07/06 08:13:41;;;;;;;5.47;2.95;;;;;;;;;;5019231;28;20654;-64
2023/07/06 08:16:09;;;;;;;3.38;3.00;;;;;;;;;;5017540;28;20229;-64
2023/07/06 08:18:36;;;;;;;2.85;2.55;;;;;;;;;;5031736;28;20198;-64
2023/07/06 08:21:05;;;;;;;2.55;2.30;;;;;;;;;;5027889;28;20260;-63
2023/07/06 08:23:54;;;;;;;3.15;2.78;;;;;;;;;;5039587;28;20293;-63
2023/07/06 08:26:21;;;;;;;3.75;2.60;;;;;;;;;;5024047;28;20623;-63
2023/07/06 08:28:49;;;;;;;6.53;3.00;;;;;;;;;;5035146;28;20288;-63
2023/07/06 08:31:18;;;;;;;4.80;3.20;;;;;;;;;;5029358;28;20622;-63
2023/07/06 08:33:47;;;;;;;3.15;2.70;;;;;;;;;;5039437;28;20286;-63
2023/07/06 08:36:16;;;;;;;5.55;3.65;;;;;;;;;;5034658;28;20230;-63
2023/07/06 08:38:43;;;;;;;3.45;2.78;;;;;;;;;;5027904;28;20203;-63
2023/07/06 08:41:23;;;;;;;3.72;3.00;;;;;;;;;;5027267;28;20248;-63
2023/07/06 08:43:51;;;;;;;3.42;2.63;;;;;;;;;;5025396;28;20210;-64
2023/07/06 08:46:20;;;;;;;3.53;2.78;;;;;;;;;;5040062;28;20233;-63
2023/07/06 08:48:48;;;;;;;2.88;2.58;;;;;;;;;;5033019;28;20264;-67
2023/07/06 08:51:16;;;;;;;5.03;2.92;;;;;;;;;;5020282;28;20226;-63
2023/07/06 08:53:49;;;;;;;4.22;2.55;;;;;;;;;;5040438;28;20259;-64
2023/07/06 08:56:18;;;;;;;4.15;2.90;;;;;;;;;;5031888;28;20273;-67
2023/07/06 08:58:46;;;;;;;4.00;3.22;;;;;;;;;;5040689;28;20214;-65
2023/07/06 09:01:16;;;;;;;3.63;2.97;;;;;;;;;;5036680;28;20193;-67
2023/07/06 09:03:49;;;;;;;3.13;2.78;;;;;;;;;;5042147;28;20198;-64
2023/07/06 09:06:21;;;;;;;4.00;3.20;;;;;;;;;;5017571;28;20754;-64
2023/07/06 09:08:50;;;;;;;4.07;3.10;;;;;;;;;;5034682;28;20747;-69
2023/07/06 09:11:21;;;;;;;3.03;2.78;;;;;;;;;;5049603;28;20210;-66
2023/07/06 09:13:49;;;;;;;3.42;3.13;;;;;;;;;;5021292;28;20393;-67
2023/07/06 09:16:20;;;;;;;4.35;2.72;;;;;;;;;;5042390;28;20321;-64
2023/07/06 09:18:48;;;;;;;4.60;3.20;;;;;;;;;;5040224;28;20264;-63
2023/07/06 09:21:17;;;;;;;3.85;2.70;;;;;;;;;;5044423;28;20206;-69
2023/07/06 09:23:45;;;;;;;6.55;5.15;;;;;;;;;;5040638;28;20230;-63
2023/07/06 09:26:23;;;;;;;4.20;3.10;;;;;;;;;;5040973;28;20237;-63
2023/07/06 09:29:13;;;;;;;3.33;3.03;;;;;;;;;;5043584;28;20580;-62
2023/07/06 09:31:43;;;;;;;4.38;3.10;;;;;;;;;;5040250;28;20691;-62
2023/07/06 09:34:27;;;;;;;4.47;3.03;;;;;;;;;;5036245;28;20225;-66
2023/07/06 09:36:54;;;;;;;3.45;3.15;;;;;;;;;;5031130;28;20206;-63
2023/07/06 09:39:23;;;;;;;4.60;3.05;;;;;;;;;;5050327;28;20206;-65
2023/07/06 09:41:51;;;;;;;2.85;2.53;;;;;;;;;;5045198;28;20652;-62
2023/07/06 09:44:25;;;;;;;4.80;3.95;;;;;;;;;;5035057;28;21763;-65
2023/07/06 09:46:55;;;;;;;4.43;3.42;;;;;;;;;;5038585;28;20236;-69
2023/07/06 09:49:26;;;;;;;4.85;4.20;;;;;;;;;;5037686;28;20199;-66
2023/07/06 09:52:00;;;;;;;4.60;4.00;;;;;;;;;;5019975;28;20212;-67
2023/07/06 09:54:54;;;;;;;3.58;2.80;;;;;;;;;;5036691;28;20244;-66
2023/07/06 09:57:24;;;;;;;4.57;3.03;;;;;;;;;;5008339;28;20207;-61
2023/07/06 09:59:52;;;;;;;4.30;3.17;;;;;;;;;;5043102;28;20206;-63
2023/07/06 10:02:24;;;;;;;5.22;3.05;;;;;;;;;;5044680;28;20272;-62
2023/07/06 10:05:00;;;;;;;3.10;2.83;;;;;;;;;;5044481;28;20309;-63
2023/07/06 10:07:30;;;;;;;3.47;2.50;;;;;;;;;;5018768;28;20229;-64
2023/07/06 10:09:58;;;;;;;4.88;3.15;;;;;;;;;;5047984;28;20209;-63
2023/07/06 10:12:39;;;;;;;3.30;3.00;;;;;;;;;;5041206;28;20244;-69
2023/07/06 10:15:14;;;;;;;3.35;2.80;;;;;;;;;;5020669;28;20629;-62
2023/07/06 10:17:45;;;;;;;2.90;2.65;;;;;;;;;;5040411;28;20438;-63
2023/07/06 10:20:18;;;;;;;3.55;3.15;;;;;;;;;;5036214;28;20207;-64
2023/07/06 10:22:56;;;;;;;3.13;2.70;;;;;;;;;;5041135;28;20203;-65
2023/07/06 10:25:42;;;;;;;3.97;3.20;;;;;;;;;;5037025;28;20252;-64
2023/07/06 10:28:10;;;;;;;5.07;3.25;;;;;;;;;;5042122;28;20230;-66
2023/07/06 10:30:39;;;;;;;3.00;2.72;;;;;;;;;;5037553;28;20210;-69
2023/07/06 10:33:12;;;;;;;4.60;2.92;;;;;;;;;;5027859;28;20203;-67
2023/07/06 10:35:45;;;;;;;3.30;3.00;;;;;;;;;;5028353;28;20646;-66
2023/07/06 10:38:13;;;;;;;9.43;6.68;;;;;;;;;;5015945;28;20214;-67
2023/07/06 10:40:41;;;;;;;3.85;2.90;;;;;;;;;;5043143;28;20292;-63
2023/07/06 10:43:11;;;;;;;4.55;3.00;;;;;;;;;;5039426;28;20238;-66
2023/07/06 10:45:42;;;;;;;3.30;2.78;;;;;;;;;;5035450;28;20306;-64
2023/07/06 10:48:13;;;;;;;5.50;2.95;;;;;;;;;;5038046;28;20276;-64
2023/07/06 10:50:46;;;;;;;4.63;3.00;;;;;;;;;;5039100;28;20198;-63
2023/07/06 10:53:24;;;;;;;3.65;3.00;;;;;;;;;;5039691;28;20260;-64
2023/07/06 10:55:58;;;;;;;3.28;2.97;;;;;;;;;;5043325;28;20711;-64
2023/07/06 10:58:27;;;;;;;5.25;3.70;;;;;;;;;;5046255;28;20281;-63
2023/07/06 11:00:57;;;;;;;4.43;3.65;;;;;;;;;;5044859;28;20206;-63
2023/07/06 11:03:27;;;;;;;4.25;3.20;;;;;;;;;;5039031;28;20217;-65
2023/07/06 11:05:56;;;;;;;5.03;3.40;;;;;;;;;;5044550;28;20226;-65
2023/07/06 11:08:54;;;;;;;3.88;2.90;;;;;;;;;;5029993;28;20222;-66
2023/07/06 11:11:25;;;;;;;3.80;3.40;;;;;;;;;;5024902;28;20656;-62
2023/07/06 11:13:53;;;;;;;5.47;3.10;;;;;;;;;;5036040;28;20191;-62
2023/07/06 11:16:26;;;;;;;4.03;2.97;;;;;;;;;;5042795;28;20232;-63
2023/07/06 11:18:56;;;;;;;4.78;3.50;;;;;;;;;;5037009;28;20210;-62
2023/07/06 11:21:30;;;;;;;3.88;3.30;;;;;;;;;;5036476;28;20492;-64
2023/07/06 11:24:06;;;;;;;3.85;3.10;;;;;;;;;;5045146;28;20214;-63
2023/07/06 11:26:33;;;;;;;4.18;3.10;;;;;;;;;;5028629;28;20279;-63
2023/07/06 11:29:01;;;;;;;3.55;3.03;;;;;;;;;;5031432;28;20636;-63
2023/07/06 11:31:44;;;;;;;5.85;3.97;;;;;;;;;;5041216;28;20616;-64
2023/07/06 11:34:13;;;;;;;4.50;3.85;;;;;;;;;;5041914;28;20206;-65
2023/07/06 11:36:45;;;;;;;3.42;3.13;;;;;;;;;;5038313;28;20221;-63
2023/07/06 11:39:19;;;;;;;4.00;3.60;;;;;;;;;;5033560;28;20676;-63
2023/07/06 11:42:13;;;;;;;3.65;3.33;;;;;;;;;;5043096;28;20203;-64
2023/07/06 11:44:40;;;;;;;6.20;3.45;;;;;;;;;;5031096;28;20221;-64
2023/07/06 11:47:20;;;;;;;3.72;3.25;;;;;;;;;;5041443;28;20210;-63
2023/07/06 11:49:49;;;;;;;4.97;3.65;;;;;;;;;;5037561;28;20206;-62
2023/07/06 11:52:26;;;;;;;3.97;2.92;;;;;;;;;;5043414;28;20808;-62
2023/07/06 11:55:05;;;;;;;3.55;3.25;;;;;;;;;;5043494;28;20240;-64
2023/07/06 11:57:44;;;;;;;3.70;3.30;;;;;;;;;;5027939;28;20209;-63
2023/07/06 12:02:53;;;;;;;3.30;3.00;;;;;;;;;;5046666;28;20214;-63
2023/07/06 12:05:25;;;;;;;4.70;4.00;;;;;;;;;;5048357;28;20712;-63
2023/07/06 12:07:57;;;;;;;4.57;3.05;;;;;;;;;;5055595;28;20258;-64
2023/07/06 12:10:24;;;;;;;5.28;4.28;;;;;;;;;;5040010;28;20742;-63
2023/07/06 12:12:54;;;;;;;8.90;5.38;;;;;;;;;;5029802;28;20203;-65
2023/07/06 12:15:23;;;;;;;4.78;3.45;;;;;;;;;;5029089;28;20897;-64
2023/07/06 12:18:01;;;;;;;5.85;3.85;;;;;;;;;;5041249;28;20660;-63
2023/07/06 12:20:31;;;;;;;4.13;3.70;;;;;;;;;;5040702;28;20674;-64
2023/07/06 12:22:59;;;;;;;3.00;2.80;;;;;;;;;;5024807;28;20206;-65
2023/07/06 12:25:27;;;;;;;3.60;2.97;;;;;;;;;;5018977;28;20606;-64
2023/07/06 12:27:59;;;;;;;3.50;3.20;;;;;;;;;;5043442;28;20234;-62
2023/07/06 12:30:33;;;;;;;3.83;3.42;;;;;;;;;;5031374;28;20559;-63
2023/07/06 12:33:04;;;;;;;3.97;3.58;;;;;;;;;;5037970;28;20220;-65
2023/07/06 12:35:34;;;;;;;4.03;3.58;;;;;;;;;;5041717;28;20234;-65
2023/07/06 12:38:09;;;;;;;3.88;3.47;;;;;;;;;;5048727;28;20202;-61
2023/07/06 12:40:39;;;;;;;3.88;3.35;;;;;;;;;;5028465;28;20202;-64
2023/07/06 12:43:13;;;;;;;3.60;3.08;;;;;;;;;;5047231;28;20205;-62
2023/07/06 12:45:40;;;;;;;4.85;3.00;;;;;;;;;;5044125;28;20230;-63
2023/07/06 12:48:18;;;;;;;3.88;3.47;;;;;;;;;;5037410;28;20697;-64
2023/07/06 12:50:47;;;;;;;3.45;3.15;;;;;;;;;;5020221;28;20253;-64
2023/07/06 12:53:22;;;;;;;3.60;3.00;;;;;;;;;;5029296;28;20214;-64
2023/07/06 12:55:52;;;;;;;3.33;2.83;;;;;;;;;;5032886;28;20252;-64
2023/07/06 12:58:28;;;;;;;4.78;3.65;;;;;;;;;;5042044;28;20701;-68
2023/07/06 13:01:06;;;;;;;4.10;3.70;;;;;;;;;;5026289;28;20201;-63
2023/07/06 13:03:45;;;;;;;3.78;3.47;;;;;;;;;;5026498;28;20221;-64
2023/07/06 13:06:13;;;;;;;4.93;3.60;;;;;;;;;;5040690;28;20453;-65
2023/07/06 13:08:40;;;;;;;4.43;3.08;;;;;;;;;;5027271;28;20488;-63
2023/07/06 13:11:08;;;;;;;3.38;3.05;;;;;;;;;;5032545;28;20206;-64
2023/07/06 13:13:36;;;;;;;4.07;3.65;;;;;;;;;;5021914;28;20210;-64
2023/07/06 13:16:07;;;;;;;3.75;3.40;;;;;;;;;;5039279;28;20527;-62
2023/07/06 13:18:37;;;;;;;2.95;2.75;;;;;;;;;;5031077;28;20206;-69
2023/07/06 13:21:10;;;;;;;3.30;3.00;;;;;;;;;;5041806;28;20296;-66
2023/07/06 13:23:38;;;;;;;3.35;3.05;;;;;;;;;;5026762;28;20253;-64
2023/07/06 13:26:05;;;;;;;4.05;3.65;;;;;;;;;;5034472;28;20241;-63
2023/07/06 13:28:35;;;;;;;5.15;3.97;;;;;;;;;;5033794;28;20246;-63
2023/07/06 13:31:03;;;;;;;5.15;3.88;;;;;;;;;;5033156;28;20198;-62
2023/07/06 13:33:31;;;;;;;3.83;3.35;;;;;;;;;;5040586;28;20305;-64
2023/07/06 13:35:59;;;;;;;3.70;3.28;;;;;;;;;;5046239;28;20222;-65
2023/07/06 13:38:28;;;;;;;3.65;3.35;;;;;;;;;;5041618;28;20672;-62
2023/07/06 13:40:55;;;;;;;4.10;3.70;;;;;;;;;;5039680;28;23086;-64
2023/07/06 13:43:23;;;;;;;4.32;3.70;;;;;;;;;;5041544;28;20206;-63
2023/07/06 13:45:50;;;;;;;;;;;;;;;;;;5042561;28;20053;-66
2023/07/06 13:48:18;;;;;;;4.03;3.60;;;;;;;;;;5042062;28;20263;-65
2023/07/06 13:50:46;;;;;;;3.90;3.50;;;;;;;;;;5023377;28;20248;-65
2023/07/06 13:53:15;;;;;;;4.32;3.42;;;;;;;;;;5029156;28;20289;-63
2023/07/06 13:55:48;;;;;;;5.22;3.40;;;;;;;;;;5038561;28;20219;-64
2023/07/06 13:58:16;;;;;;;3.75;3.45;;;;;;;;;;5046067;28;20237;-64
2023/07/06 14:00:46;;;;;;;3.65;3.30;;;;;;;;;;5044760;28;20556;-64
2023/07/06 14:03:24;;;;;;;4.22;3.30;;;;;;;;;;5039282;28;20202;-69
2023/07/06 14:05:52;;;;;;;5.65;4.40;;;;;;;;;;5036280;28;20221;-63
2023/07/06 14:08:20;;;;;;;3.75;3.45;;;;;;;;;;5025387;28;20241;-65
2023/07/06 14:10:48;;;;;;;4.53;3.67;;;;;;;;;;5034529;28;20226;-66
2023/07/06 14:13:17;;;;;;;5.72;3.63;;;;;;;;;;5019793;28;20285;-62
2023/07/06 14:15:44;;;;;;;;;;;;;;;;;;5037739;28;20361;-62
2023/07/06 14:18:12;;;;;;;;;;;;;;;;;;5027276;28;19978;-69
2023/07/06 14:20:40;;;;;;;;;;;;;;;;;;5039940;28;19921;-62
2023/07/06 14:23:07;;;;;;;;;;;;;;;;;;5027413;28;19994;-61
2023/07/06 14:25:34;;;;;;;;;;;;;;;;;;5037652;28;19928;-63
2023/07/06 14:28:03;;;;;;;;;;;;;;;;;;5041791;28;20381;-62
2023/07/06 14:30:30;;;;;;;;;;;;;;;;;;5039150;28;19975;-68
2023/07/06 14:32:58;;;;;;;;;;;;;;;;;;5038420;28;20382;-62
2023/07/06 14:35:26;;;;;;;;;;;;;;;;;;5027041;28;19970;-62
2023/07/06 14:37:53;;;;;;;3.70;3.20;;;;;;;;;;5042385;28;19921;-70
2023/07/06 14:40:20;;;;;;;4.38;3.92;;;;;;;;;;5030056;28;20797;-62
2023/07/06 14:42:52;;;;;;;5.45;3.92;;;;;;;;;;5039322;28;20198;-63
2023/07/06 14:45:20;;;;;;;4.30;3.42;;;;;;;;;;5043642;28;20234;-63
2023/07/06 14:47:47;;;;;;;5.60;3.88;;;;;;;;;;5037657;28;20199;-63
2023/07/06 14:50:17;;;;;;;4.20;3.80;;;;;;;;;;5030175;28;20202;-62
2023/07/06 14:52:45;;;;;;;3.97;3.58;;;;;;;;;;5036125;28;20202;-71
2023/07/06 14:55:12;;;;;;;3.85;3.55;;;;;;;;;;5035179;28;20288;-63
2023/07/06 14:57:40;;;;;;;4.25;3.88;;;;;;;;;;5044551;28;20268;-64
2023/07/06 15:00:12;;;;;;;5.47;3.90;;;;;;;;;;5045612;28;20279;-64
2023/07/06 15:02:40;;;;;;;4.22;3.72;;;;;;;;;;5040446;28;20679;-64
2023/07/06 15:05:08;;;;;;;5.00;3.78;;;;;;;;;;5041225;28;20276;-63